sensor_id;sensor_type;location;lat;lon;timestamp;pressure;altitude;pressure_sealevel;temperature;humidity
69402;BME280;56589;51.992;5.924;2022-09-01T00:00:44;101617.38;;;15.19;57.91
69402;BME280;56589;51.992;5.924;2022-09-01T00:03:10;101617.38;;;15.19;57.82
69402;BME280;56589;51.992;5.924;2022-09-01T00:05:36;101616.66;;;15.17;58.13
69402;BME280;56589;51.992;5.924;2022-09-01T00:08:02;101610.72;;;15.13;58.27
69402;BME280;56589;51.992;5.924;2022-09-01T00:10:28;101614.44;;;15.10;58.40
69402;BME280;56589;51.992;5.924;2022-09-01T00:12:54;101611.13;;;15.07;58.91
69402;BME280;56589;51.992;5.924;2022-09-01T00:15:23;101609.56;;;15.04;58.49
69402;BME280;56589;51.992;5.924;2022-09-01T00:17:49;101616.66;;;15.04;58.31
69402;BME280;56589;51.992;5.924;2022-09-01T00:20:15;101607.25;;;15.00;58.75
69402;BME280;56589;51.992;5.924;2022-09-01T00:22:41;101611.78;;;14.98;58.89
69402;BME280;56589;51.992;5.924;2022-09-01T00:25:08;101614.56;;;14.96;58.72
69402;BME280;56589;51.992;5.924;2022-09-01T00:27:34;101625.22;;;14.95;58.89
69402;BME280;56589;51.992;5.924;2022-09-01T00:29:59;101615.81;;;14.91;58.67
69402;BME280;56589;51.992;5.924;2022-09-01T00:32:28;101615.91;;;14.89;58.84
69402;BME280;56589;51.992;5.924;2022-09-01T00:34:54;101613.38;;;14.88;58.95
69402;BME280;56589;51.992;5.924;2022-09-01T00:37:19;101617.81;;;14.87;59.26
69402;BME280;56589;51.992;5.924;2022-09-01T00:39:45;101617.94;;;14.85;58.71
69402;BME280;56589;51.992;5.924;2022-09-01T00:42:11;101618.78;;;14.86;59.00
69402;BME280;56589;51.992;5.924;2022-09-01T00:44:36;101613.69;;;14.83;59.24
69402;BME280;56589;51.992;5.924;2022-09-01T00:47:02;101607.66;;;14.81;59.11
69402;BME280;56589;51.992;5.924;2022-09-01T00:49:34;101613.91;;;14.80;59.33
69402;BME280;56589;51.992;5.924;2022-09-01T00:52:06;101614.94;;;14.77;59.45
69402;BME280;56589;51.992;5.924;2022-09-01T00:54:40;101603.88;;;14.72;59.41
69402;BME280;56589;51.992;5.924;2022-09-01T00:57:10;101611.16;;;14.69;59.62
69402;BME280;56589;51.992;5.924;2022-09-01T00:59:39;101601.72;;;14.65;59.89
69402;BME280;56589;51.992;5.924;2022-09-01T01:02:11;101599.28;;;14.62;60.00
69402;BME280;56589;51.992;5.924;2022-09-01T01:04:40;101596.81;;;14.58;59.56
69402;BME280;56589;51.992;5.924;2022-09-01T01:07:05;101597.88;;;14.56;59.89
69402;BME280;56589;51.992;5.924;2022-09-01T01:09:33;101596.19;;;14.55;59.67
69402;BME280;56589;51.992;5.924;2022-09-01T01:12:04;101595.34;;;14.54;60.04
69402;BME280;56589;51.992;5.924;2022-09-01T01:14:34;101595.13;;;14.57;59.39
69402;BME280;56589;51.992;5.924;2022-09-01T01:16:59;101603.91;;;14.58;59.20
69402;BME280;56589;51.992;5.924;2022-09-01T01:19:33;101592.50;;;14.57;59.29
69402;BME280;56589;51.992;5.924;2022-09-01T01:22:12;101589.97;;;14.56;59.25
69402;BME280;56589;51.992;5.924;2022-09-01T01:24:47;101601.38;;;14.56;59.15
69402;BME280;56589;51.992;5.924;2022-09-01T01:27:12;101593.34;;;14.58;59.27
69402;BME280;56589;51.992;5.924;2022-09-01T01:29:38;101597.69;;;14.59;58.89
69402;BME280;56589;51.992;5.924;2022-09-01T01:32:04;101597.59;;;14.61;59.28
69402;BME280;56589;51.992;5.924;2022-09-01T01:34:31;101591.25;;;14.63;58.87
69402;BME280;56589;51.992;5.924;2022-09-01T01:36:56;101593.59;;;14.68;58.72
69402;BME280;56589;51.992;5.924;2022-09-01T01:39:23;101595.81;;;14.74;58.89
69402;BME280;56589;51.992;5.924;2022-09-01T01:41:53;101600.88;;;14.77;58.13
69402;BME280;56589;51.992;5.924;2022-09-01T01:44:21;101593.28;;;14.85;58.14
69402;BME280;56589;51.992;5.924;2022-09-01T01:46:51;101587.47;;;14.93;57.81
69402;BME280;56589;51.992;5.924;2022-09-01T01:49:20;101593.16;;;14.99;57.39
69402;BME280;56589;51.992;5.924;2022-09-01T01:51:50;101595.19;;;15.08;57.18
69402;BME280;56589;51.992;5.924;2022-09-01T01:54:17;101596.31;;;15.17;56.87
69402;BME280;56589;51.992;5.924;2022-09-01T01:56:43;101596.75;;;15.24;56.39
69402;BME280;56589;51.992;5.924;2022-09-01T01:59:11;101599.78;;;15.30;56.17
69402;BME280;56589;51.992;5.924;2022-09-01T02:01:37;101601.03;;;15.37;55.54
69402;BME280;56589;51.992;5.924;2022-09-01T02:04:03;101593.63;;;15.43;55.18
69402;BME280;56589;51.992;5.924;2022-09-01T02:06:32;101595.00;;;15.48;54.96
69402;BME280;56589;51.992;5.924;2022-09-01T02:08:59;101587.56;;;15.53;54.52
69402;BME280;56589;51.992;5.924;2022-09-01T02:11:25;101587.34;;;15.56;54.71
69402;BME280;56589;51.992;5.924;2022-09-01T02:13:52;101590.72;;;15.58;54.27
69402;BME280;56589;51.992;5.924;2022-09-01T02:16:20;101596.75;;;15.60;53.79
69402;BME280;56589;51.992;5.924;2022-09-01T02:18:47;101597.59;;;15.61;53.76
69402;BME280;56589;51.992;5.924;2022-09-01T02:21:15;101590.28;;;15.64;53.04
69402;BME280;56589;51.992;5.924;2022-09-01T02:23:43;101600.53;;;15.69;52.82
69402;BME280;56589;51.992;5.924;2022-09-01T02:26:11;101594.09;;;15.73;52.78
69402;BME280;56589;51.992;5.924;2022-09-01T02:28:39;101588.69;;;15.75;52.93
69402;BME280;56589;51.992;5.924;2022-09-01T02:31:05;101592.16;;;15.75;52.70
69402;BME280;56589;51.992;5.924;2022-09-01T02:33:34;101587.84;;;15.74;52.73
69402;BME280;56589;51.992;5.924;2022-09-01T02:36:04;101593.13;;;15.74;52.52
69402;BME280;56589;51.992;5.924;2022-09-01T02:38:33;101591.56;;;15.72;52.61
69402;BME280;56589;51.992;5.924;2022-09-01T02:41:01;101587.41;;;15.67;52.57
69402;BME280;56589;51.992;5.924;2022-09-01T02:43:28;101584.25;;;15.62;53.04
69402;BME280;56589;51.992;5.924;2022-09-01T02:45:55;101594.56;;;15.54;53.50
69402;BME280;56589;51.992;5.924;2022-09-01T02:48:25;101587.78;;;15.50;53.41
69402;BME280;56589;51.992;5.924;2022-09-01T02:50:56;101588.97;;;15.46;53.51
69402;BME280;56589;51.992;5.924;2022-09-01T02:53:21;101588.34;;;15.43;53.65
69402;BME280;56589;51.992;5.924;2022-09-01T02:55:47;101586.84;;;15.38;53.57
69402;BME280;56589;51.992;5.924;2022-09-01T02:58:13;101590.56;;;15.36;53.41
69402;BME280;56589;51.992;5.924;2022-09-01T03:00:38;101592.50;;;15.34;53.78
69402;BME280;56589;51.992;5.924;2022-09-01T03:03:05;101588.25;;;15.31;53.77
69402;BME280;56589;51.992;5.924;2022-09-01T03:05:32;101585.72;;;15.30;53.99
69402;BME280;56589;51.992;5.924;2022-09-01T03:08:04;101587.53;;;15.29;53.92
69402;BME280;56589;51.992;5.924;2022-09-01T03:10:35;101584.16;;;15.27;54.07
69402;BME280;56589;51.992;5.924;2022-09-01T03:13:05;101577.25;;;15.25;54.20
69402;BME280;56589;51.992;5.924;2022-09-01T03:15:34;101589.88;;;15.21;53.92
69402;BME280;56589;51.992;5.924;2022-09-01T03:18:01;101591.03;;;15.17;54.02
69402;BME280;56589;51.992;5.924;2022-09-01T03:20:30;101591.34;;;15.12;53.84
69402;BME280;56589;51.992;5.924;2022-09-01T03:22:56;101587.34;;;15.07;54.11
69402;BME280;56589;51.992;5.924;2022-09-01T03:25:25;101584.28;;;15.00;54.47
69402;BME280;56589;51.992;5.924;2022-09-01T03:27:52;101593.47;;;14.95;54.43
69402;BME280;56589;51.992;5.924;2022-09-01T03:30:18;101587.66;;;14.90;54.39
69402;BME280;56589;51.992;5.924;2022-09-01T03:32:44;101596.88;;;14.84;54.86
69402;BME280;56589;51.992;5.924;2022-09-01T03:35:11;101594.56;;;14.79;54.96
69402;BME280;56589;51.992;5.924;2022-09-01T03:37:36;101592.34;;;14.73;54.98
69402;BME280;56589;51.992;5.924;2022-09-01T03:40:04;101592.63;;;14.69;55.06
69402;BME280;56589;51.992;5.924;2022-09-01T03:42:34;101593.78;;;14.65;55.31
69402;BME280;56589;51.992;5.924;2022-09-01T03:45:00;101591.34;;;14.62;55.25
69402;BME280;56589;51.992;5.924;2022-09-01T03:47:26;101591.34;;;14.62;54.77
69402;BME280;56589;51.992;5.924;2022-09-01T03:49:52;101596.63;;;14.62;54.81
69402;BME280;56589;51.992;5.924;2022-09-01T03:52:18;101596.56;;;14.63;54.65
69402;BME280;56589;51.992;5.924;2022-09-01T03:54:43;101590.41;;;14.63;54.50
69402;BME280;56589;51.992;5.924;2022-09-01T03:57:09;101593.97;;;14.62;54.50
69402;BME280;56589;51.992;5.924;2022-09-01T03:59:37;101592.09;;;14.64;54.56
69402;BME280;56589;51.992;5.924;2022-09-01T04:02:03;101586.81;;;14.64;54.71
69402;BME280;56589;51.992;5.924;2022-09-01T04:04:29;101586.75;;;14.65;54.62
69402;BME280;56589;51.992;5.924;2022-09-01T04:06:55;101581.34;;;14.67;54.43
69402;BME280;56589;51.992;5.924;2022-09-01T04:09:21;101584.72;;;14.69;54.17
69402;BME280;56589;51.992;5.924;2022-09-01T04:11:47;101576.66;;;14.70;54.30
69402;BME280;56589;51.992;5.924;2022-09-01T04:14:13;101579.13;;;14.73;54.08
69402;BME280;56589;51.992;5.924;2022-09-01T04:16:43;101570.13;;;14.76;54.09
69402;BME280;56589;51.992;5.924;2022-09-01T04:19:09;101583.22;;;14.77;53.86
69402;BME280;56589;51.992;5.924;2022-09-01T04:21:36;101580.69;;;14.76;54.04
69402;BME280;56589;51.992;5.924;2022-09-01T04:24:02;101578.81;;;14.78;53.89
69402;BME280;56589;51.992;5.924;2022-09-01T04:26:28;101575.50;;;14.74;53.58
69402;BME280;56589;51.992;5.924;2022-09-01T04:28:53;101581.00;;;14.71;53.80
69402;BME280;56589;51.992;5.924;2022-09-01T04:31:20;101585.56;;;14.69;54.11
69402;BME280;56589;51.992;5.924;2022-09-01T04:33:50;101578.69;;;14.67;53.98
69402;BME280;56589;51.992;5.924;2022-09-01T04:36:18;101579.00;;;14.62;53.75
69402;BME280;56589;51.992;5.924;2022-09-01T04:38:50;101578.44;;;14.57;54.28
69402;BME280;56589;51.992;5.924;2022-09-01T04:41:18;101577.81;;;14.53;53.96
69402;BME280;56589;51.992;5.924;2022-09-01T04:43:44;101571.88;;;14.50;53.94
69402;BME280;56589;51.992;5.924;2022-09-01T04:46:09;101574.75;;;14.47;54.14
69402;BME280;56589;51.992;5.924;2022-09-01T04:48:35;101576.72;;;14.43;54.39
69402;BME280;56589;51.992;5.924;2022-09-01T04:51:06;101579.56;;;14.40;54.41
69402;BME280;56589;51.992;5.924;2022-09-01T04:53:31;101579.06;;;14.35;54.31
69402;BME280;56589;51.992;5.924;2022-09-01T04:56:01;101576.59;;;14.32;54.44
69402;BME280;56589;51.992;5.924;2022-09-01T04:58:27;101575.88;;;14.30;54.43
69402;BME280;56589;51.992;5.924;2022-09-01T05:00:53;101575.22;;;14.26;54.42
69402;BME280;56589;51.992;5.924;2022-09-01T05:03:19;101576.28;;;14.24;54.44
69402;BME280;56589;51.992;5.924;2022-09-01T05:05:45;101582.72;;;14.20;54.87
69402;BME280;56589;51.992;5.924;2022-09-01T05:08:16;101579.34;;;14.18;54.50
69402;BME280;56589;51.992;5.924;2022-09-01T05:10:46;101578.69;;;14.14;54.56
69402;BME280;56589;51.992;5.924;2022-09-01T05:13:14;101583.34;;;14.11;55.02
69402;BME280;56589;51.992;5.924;2022-09-01T05:15:40;101587.78;;;14.10;54.60
69402;BME280;56589;51.992;5.924;2022-09-01T05:18:06;101578.91;;;14.11;54.89
69402;BME280;56589;51.992;5.924;2022-09-01T05:20:32;101576.25;;;14.11;54.83
69402;BME280;56589;51.992;5.924;2022-09-01T05:22:58;101588.69;;;14.09;54.69
69402;BME280;56589;51.992;5.924;2022-09-01T05:25:26;101588.81;;;14.08;54.82
69402;BME280;56589;51.992;5.924;2022-09-01T05:27:52;101593.25;;;14.07;54.87
69402;BME280;56589;51.992;5.924;2022-09-01T05:30:18;101598.53;;;14.07;55.11
69402;BME280;56589;51.992;5.924;2022-09-01T05:32:44;101594.09;;;14.08;54.88
69402;BME280;56589;51.992;5.924;2022-09-01T05:35:10;101602.84;;;14.08;55.26
69402;BME280;56589;51.992;5.924;2022-09-01T05:37:35;101596.63;;;14.09;55.25
69402;BME280;56589;51.992;5.924;2022-09-01T05:40:03;101603.63;;;14.10;54.98
69402;BME280;56589;51.992;5.924;2022-09-01T05:42:33;101594.75;;;14.11;55.13
69402;BME280;56589;51.992;5.924;2022-09-01T05:44:59;101598.22;;;14.12;54.77
69402;BME280;56589;51.992;5.924;2022-09-01T05:47:25;101598.97;;;14.14;55.13
69402;BME280;56589;51.992;5.924;2022-09-01T05:49:51;101603.25;;;14.29;55.25
69402;BME280;56589;51.992;5.924;2022-09-01T05:52:16;101604.13;;;14.55;54.44
69402;BME280;56589;51.992;5.924;2022-09-01T05:54:42;101604.16;;;14.68;54.08
69402;BME280;56589;51.992;5.924;2022-09-01T05:57:08;101608.31;;;14.72;53.53
69402;BME280;56589;51.992;5.924;2022-09-01T05:59:36;101606.41;;;14.74;53.53
69402;BME280;56589;51.992;5.924;2022-09-01T06:02:02;101605.66;;;14.72;53.63
69402;BME280;56589;51.992;5.924;2022-09-01T06:04:29;101604.16;;;14.68;53.74
69402;BME280;56589;51.992;5.924;2022-09-01T06:06:55;101606.28;;;14.63;53.89
69402;BME280;56589;51.992;5.924;2022-09-01T06:09:20;101609.84;;;14.62;53.69
69402;BME280;56589;51.992;5.924;2022-09-01T06:11:46;101607.66;;;14.68;53.94
69402;BME280;56589;51.992;5.924;2022-09-01T06:14:12;101613.69;;;14.70;53.75
69402;BME280;56589;51.992;5.924;2022-09-01T06:16:42;101616.25;;;14.72;53.64
69402;BME280;56589;51.992;5.924;2022-09-01T06:19:08;101617.16;;;14.71;53.12
69402;BME280;56589;51.992;5.924;2022-09-01T06:21:35;101615.16;;;14.74;53.32
69402;BME280;56589;51.992;5.924;2022-09-01T06:24:03;101620.88;;;14.81;53.33
69402;BME280;56589;51.992;5.924;2022-09-01T06:26:32;101618.78;;;14.86;53.22
69402;BME280;56589;51.992;5.924;2022-09-01T06:29:01;101619.00;;;15.08;53.72
69402;BME280;56589;51.992;5.924;2022-09-01T06:31:31;101613.66;;;15.83;53.72
69402;BME280;56589;51.992;5.924;2022-09-01T06:34:02;101618.50;;;16.84;51.92
69402;BME280;56589;51.992;5.924;2022-09-01T06:36:29;101621.41;;;17.37;50.04
69402;BME280;56589;51.992;5.924;2022-09-01T06:38:55;101614.50;;;17.45;49.44
69402;BME280;56589;51.992;5.924;2022-09-01T06:41:21;101619.34;;;17.74;48.96
69402;BME280;56589;51.992;5.924;2022-09-01T06:43:48;101617.97;;;17.91;48.26
69402;BME280;56589;51.992;5.924;2022-09-01T06:46:15;101631.81;;;18.26;48.42
69402;BME280;56589;51.992;5.924;2022-09-01T06:48:41;101636.16;;;18.80;47.52
69402;BME280;56589;51.992;5.924;2022-09-01T06:51:10;101634.88;;;18.96;46.45
69402;BME280;56589;51.992;5.924;2022-09-01T06:53:36;101636.81;;;18.94;45.86
69402;BME280;56589;51.992;5.924;2022-09-01T06:56:02;101642.59;;;18.78;45.38
69402;BME280;56589;51.992;5.924;2022-09-01T06:58:28;101639.91;;;18.57;45.91
69402;BME280;56589;51.992;5.924;2022-09-01T07:00:54;101640.13;;;18.33;46.13
69402;BME280;56589;51.992;5.924;2022-09-01T07:03:19;101638.91;;;18.16;46.32
69402;BME280;56589;51.992;5.924;2022-09-01T07:05:46;101635.31;;;18.06;46.82
69402;BME280;56589;51.992;5.924;2022-09-01T07:08:16;101629.00;;;18.07;46.42
69402;BME280;56589;51.992;5.924;2022-09-01T07:10:44;101637.22;;;18.15;46.68
69402;BME280;56589;51.992;5.924;2022-09-01T07:13:13;101628.31;;;18.26;46.44
69402;BME280;56589;51.992;5.924;2022-09-01T07:15:41;101634.56;;;18.36;46.08
69402;BME280;56589;51.992;5.924;2022-09-01T07:18:07;101645.31;;;18.46;45.97
69402;BME280;56589;51.992;5.924;2022-09-01T07:20:33;101646.81;;;18.59;45.90
69402;BME280;56589;51.992;5.924;2022-09-01T07:22:58;101643.22;;;18.70;45.64
69402;BME280;56589;51.992;5.924;2022-09-01T07:25:27;101641.75;;;18.77;45.74
69402;BME280;56589;51.992;5.924;2022-09-01T07:27:52;101643.81;;;18.95;45.40
69402;BME280;56589;51.992;5.924;2022-09-01T07:30:20;101642.72;;;18.97;44.60
69402;BME280;56589;51.992;5.924;2022-09-01T07:32:47;101649.47;;;18.80;44.89
69402;BME280;56589;51.992;5.924;2022-09-01T07:35:15;101641.22;;;18.63;45.35
69402;BME280;56589;51.992;5.924;2022-09-01T07:37:43;101648.66;;;18.48;45.35
69402;BME280;56589;51.992;5.924;2022-09-01T07:40:10;101639.53;;;18.41;45.57
69402;BME280;56589;51.992;5.924;2022-09-01T07:42:40;101643.16;;;18.40;45.68
69402;BME280;56589;51.992;5.924;2022-09-01T07:45:07;101638.78;;;18.39;45.17
69402;BME280;56589;51.992;5.924;2022-09-01T07:47:35;101650.03;;;18.42;45.77
69402;BME280;56589;51.992;5.924;2022-09-01T07:50:01;101646.06;;;18.57;45.78
69402;BME280;56589;51.992;5.924;2022-09-01T07:52:27;101651.44;;;18.78;45.92
69402;BME280;56589;51.992;5.924;2022-09-01T07:54:52;101644.16;;;19.01;45.34
69402;BME280;56589;51.992;5.924;2022-09-01T07:57:18;101643.66;;;19.17;44.95
69402;BME280;56589;51.992;5.924;2022-09-01T07:59:46;101648.97;;;19.17;44.31
69402;BME280;56589;51.992;5.924;2022-09-01T08:02:12;101646.31;;;19.17;44.81
69402;BME280;56589;51.992;5.924;2022-09-01T08:04:38;101646.63;;;19.24;44.17
69402;BME280;56589;51.992;5.924;2022-09-01T08:07:04;101641.50;;;19.32;44.35
69402;BME280;56589;51.992;5.924;2022-09-01T08:09:30;101641.78;;;19.38;44.39
69402;BME280;56589;51.992;5.924;2022-09-01T08:11:55;101649.69;;;19.50;43.93
69402;BME280;56589;51.992;5.924;2022-09-01T08:14:21;101643.97;;;19.54;43.91
69402;BME280;56589;51.992;5.924;2022-09-01T08:16:49;101645.38;;;19.58;43.67
69402;BME280;56589;51.992;5.924;2022-09-01T08:19:15;101648.34;;;19.65;44.13
69402;BME280;56589;51.992;5.924;2022-09-01T08:21:41;101641.09;;;19.77;43.35
69402;BME280;56589;51.992;5.924;2022-09-01T08:24:06;101638.97;;;19.80;43.93
69402;BME280;56589;51.992;5.924;2022-09-01T08:26:32;101644.47;;;19.88;43.14
69402;BME280;56589;51.992;5.924;2022-09-01T08:28:58;101649.50;;;19.91;43.49
69402;BME280;56589;51.992;5.924;2022-09-01T08:31:24;101644.47;;;19.98;43.10
69402;BME280;56589;51.992;5.924;2022-09-01T08:33:53;101650.94;;;20.05;42.69
69402;BME280;56589;51.992;5.924;2022-09-01T08:36:19;101646.31;;;20.07;42.58
69402;BME280;56589;51.992;5.924;2022-09-01T08:38:45;101647.84;;;20.10;42.41
69402;BME280;56589;51.992;5.924;2022-09-01T08:41:15;101646.31;;;20.17;42.56
69402;BME280;56589;51.992;5.924;2022-09-01T08:43:55;101647.16;;;20.27;42.23
69402;BME280;56589;51.992;5.924;2022-09-01T08:46:34;101643.69;;;20.36;42.09
69402;BME280;56589;51.992;5.924;2022-09-01T08:49:13;101646.19;;;20.48;41.52
69402;BME280;56589;51.992;5.924;2022-09-01T08:51:44;101640.44;;;20.62;42.30
69402;BME280;56589;51.992;5.924;2022-09-01T08:54:19;101646.00;;;20.78;41.76
69402;BME280;56589;51.992;5.924;2022-09-01T08:56:50;101640.22;;;20.92;41.59
69402;BME280;56589;51.992;5.924;2022-09-01T08:59:19;101634.31;;;20.98;41.17
69402;BME280;56589;51.992;5.924;2022-09-01T09:01:49;101633.44;;;21.08;41.13
69402;BME280;56589;51.992;5.924;2022-09-01T09:04:38;101630.72;;;21.27;40.68
69402;BME280;56589;51.992;5.924;2022-09-01T09:07:22;101631.84;;;21.52;40.11
69402;BME280;56589;51.992;5.924;2022-09-01T09:10:05;101630.22;;;21.69;39.53
69402;BME280;56589;51.992;5.924;2022-09-01T09:12:43;101634.13;;;21.74;39.32
69402;BME280;56589;51.992;5.924;2022-09-01T09:15:25;101623.50;;;21.83;38.25
69402;BME280;56589;51.992;5.924;2022-09-01T09:18:05;101619.28;;;21.90;37.69
69402;BME280;56589;51.992;5.924;2022-09-01T09:20:42;101615.13;;;21.95;38.03
69402;BME280;56589;51.992;5.924;2022-09-01T09:23:16;101621.94;;;22.08;37.83
69402;BME280;56589;51.992;5.924;2022-09-01T09:25:48;101613.69;;;22.19;38.19
69402;BME280;56589;51.992;5.924;2022-09-01T09:28:14;101614.13;;;22.32;37.83
69402;BME280;56589;51.992;5.924;2022-09-01T09:30:40;101619.09;;;22.45;36.78
69402;BME280;56589;51.992;5.924;2022-09-01T09:33:07;101614.44;;;22.47;36.77
69402;BME280;56589;51.992;5.924;2022-09-01T09:35:35;101611.06;;;22.45;36.20
69402;BME280;56589;51.992;5.924;2022-09-01T09:38:21;101607.91;;;22.49;36.26
69402;BME280;56589;51.992;5.924;2022-09-01T09:40:56;101611.19;;;22.61;35.49
69402;BME280;56589;51.992;5.924;2022-09-01T09:43:24;101599.03;;;22.67;35.70
69402;BME280;56589;51.992;5.924;2022-09-01T09:46:20;101603.72;;;22.65;34.12
69402;BME280;56589;51.992;5.924;2022-09-01T09:48:49;101596.59;;;22.55;34.17
69402;BME280;56589;51.992;5.924;2022-09-01T09:51:32;101586.56;;;22.57;34.25
69402;BME280;56589;51.992;5.924;2022-09-01T09:54:13;101599.03;;;22.67;33.15
69402;BME280;56589;51.992;5.924;2022-09-01T09:56:42;101585.56;;;22.76;34.18
69402;BME280;56589;51.992;5.924;2022-09-01T09:59:18;101580.78;;;22.88;34.08
69402;BME280;56589;51.992;5.924;2022-09-01T10:01:48;101578.53;;;23.18;34.86
69402;BME280;56589;51.992;5.924;2022-09-01T10:04:31;101584.94;;;23.91;32.63
69402;BME280;56589;51.992;5.924;2022-09-01T10:06:59;101580.28;;;24.51;33.13
69402;BME280;56589;51.992;5.924;2022-09-01T10:09:36;101579.88;;;24.94;31.25
69402;BME280;56589;51.992;5.924;2022-09-01T10:12:03;101587.19;;;25.17;31.07
69402;BME280;56589;51.992;5.924;2022-09-01T10:14:33;101584.00;;;25.13;31.28
69402;BME280;56589;51.992;5.924;2022-09-01T10:17:11;101585.38;;;25.09;30.85
69402;BME280;56589;51.992;5.924;2022-09-01T10:19:46;101590.63;;;24.94;30.75
69402;BME280;56589;51.992;5.924;2022-09-01T10:22:16;101572.88;;;24.85;30.42
69402;BME280;56589;51.992;5.924;2022-09-01T10:24:46;101576.38;;;24.86;30.37
69402;BME280;56589;51.992;5.924;2022-09-01T10:27:16;101572.38;;;24.74;30.15
69402;BME280;56589;51.992;5.924;2022-09-01T10:29:47;101578.78;;;24.56;29.74
69402;BME280;56589;51.992;5.924;2022-09-01T10:32:20;101583.00;;;24.42;29.89
69402;BME280;56589;51.992;5.924;2022-09-01T10:34:56;101564.03;;;24.36;29.90
69402;BME280;56589;51.992;5.924;2022-09-01T10:37:22;101571.75;;;24.39;30.37
69402;BME280;56589;51.992;5.924;2022-09-01T10:40:18;101573.94;;;24.43;29.11
69402;BME280;56589;51.992;5.924;2022-09-01T10:43:21;101567.06;;;24.25;29.93
69402;BME280;56589;51.992;5.924;2022-09-01T10:45:50;101565.06;;;24.18;29.88
69402;BME280;56589;51.992;5.924;2022-09-01T10:48:25;101573.44;;;24.24;29.98
69402;BME280;56589;51.992;5.924;2022-09-01T10:54:08;101561.69;;;24.08;30.15
69402;BME280;56589;51.992;5.924;2022-09-01T10:56:57;101556.34;;;24.08;30.37
69402;BME280;56589;51.992;5.924;2022-09-01T10:59:27;101549.13;;;24.17;29.93
69402;BME280;56589;51.992;5.924;2022-09-01T11:02:08;101551.28;;;24.22;30.14
69402;BME280;56589;51.992;5.924;2022-09-01T11:07:35;101560.19;;;24.30;29.58
69402;BME280;56589;51.992;5.924;2022-09-01T11:10:31;101557.16;;;24.33;29.81
69402;BME280;56589;51.992;5.924;2022-09-01T11:13:35;101556.31;;;24.33;29.42
69402;BME280;56589;51.992;5.924;2022-09-01T11:16:24;101549.94;;;24.34;30.05
69402;BME280;56589;51.992;5.924;2022-09-01T11:18:52;101554.63;;;24.40;29.51
69402;BME280;56589;51.992;5.924;2022-09-01T11:21:23;101553.94;;;24.46;29.54
69402;BME280;56589;51.992;5.924;2022-09-01T11:27:03;101549.44;;;24.30;29.51
69402;BME280;56589;51.992;5.924;2022-09-01T11:29:54;101548.25;;;24.33;29.22
69402;BME280;56589;51.992;5.924;2022-09-01T11:32:26;101549.25;;;24.40;29.77
69402;BME280;56589;51.992;5.924;2022-09-01T11:35:00;101539.53;;;24.39;29.23
69402;BME280;56589;51.992;5.924;2022-09-01T11:37:29;101540.19;;;24.49;29.22
69402;BME280;56589;51.992;5.924;2022-09-01T11:39:58;101538.66;;;24.55;29.40
69402;BME280;56589;51.992;5.924;2022-09-01T11:42:28;101526.75;;;24.57;29.36
69402;BME280;56589;51.992;5.924;2022-09-01T11:45:11;101538.00;;;24.61;29.26
69402;BME280;56589;51.992;5.924;2022-09-01T11:47:42;101535.16;;;24.54;29.38
69402;BME280;56589;51.992;5.924;2022-09-01T11:50:18;101528.44;;;24.50;29.36
69402;BME280;56589;51.992;5.924;2022-09-01T11:52:53;101529.94;;;24.61;29.40
69402;BME280;56589;51.992;5.924;2022-09-01T11:55:28;101522.34;;;24.72;28.83
69402;BME280;56589;51.992;5.924;2022-09-01T11:57:57;101517.16;;;24.79;29.10
69402;BME280;56589;51.992;5.924;2022-09-01T12:00:31;101520.84;;;24.78;28.84
69402;BME280;56589;51.992;5.924;2022-09-01T12:02:58;101527.66;;;24.89;29.23
69402;BME280;56589;51.992;5.924;2022-09-01T12:05:29;101518.81;;;24.80;28.53
69402;BME280;56589;51.992;5.924;2022-09-01T12:07:58;101518.13;;;24.70;29.05
69402;BME280;56589;51.992;5.924;2022-09-01T12:10:31;101511.28;;;24.76;28.70
69402;BME280;56589;51.992;5.924;2022-09-01T12:13:01;101509.41;;;24.76;28.89
69402;BME280;56589;51.992;5.924;2022-09-01T12:15:32;101508.03;;;24.88;29.59
69402;BME280;56589;51.992;5.924;2022-09-01T12:18:12;101515.38;;;25.03;28.63
69402;BME280;56589;51.992;5.924;2022-09-01T12:20:40;101509.44;;;25.07;28.83
69402;BME280;56589;51.992;5.924;2022-09-01T12:23:16;101511.66;;;25.04;28.78
69402;BME280;56589;51.992;5.924;2022-09-01T12:25:47;101501.47;;;24.91;28.99
69402;BME280;56589;51.992;5.924;2022-09-01T12:28:13;101497.91;;;24.98;29.25
69402;BME280;56589;51.992;5.924;2022-09-01T12:30:42;101502.19;;;25.16;29.22
69402;BME280;56589;51.992;5.924;2022-09-01T12:33:11;101497.59;;;25.24;29.21
69402;BME280;56589;51.992;5.924;2022-09-01T12:35:37;101493.72;;;25.27;29.23
69402;BME280;56589;51.992;5.924;2022-09-01T12:38:21;101520.78;;;25.25;28.75
69402;BME280;56589;51.992;5.924;2022-09-01T12:40:50;101517.00;;;25.12;28.88
69402;BME280;56589;51.992;5.924;2022-09-01T12:43:32;101499.06;;;25.04;29.04
69402;BME280;56589;51.992;5.924;2022-09-01T12:46:02;101493.81;;;25.11;29.24
69402;BME280;56589;51.992;5.924;2022-09-01T12:48:30;101495.31;;;25.13;29.05
69402;BME280;56589;51.992;5.924;2022-09-01T12:50:58;101489.00;;;25.29;28.90
69402;BME280;56589;51.992;5.924;2022-09-01T12:53:29;101491.63;;;25.37;28.29
69402;BME280;56589;51.992;5.924;2022-09-01T12:56:16;101483.94;;;25.34;27.14
69402;BME280;56589;51.992;5.924;2022-09-01T12:58:49;101472.50;;;25.32;27.65
69402;BME280;56589;51.992;5.924;2022-09-01T13:01:28;101479.88;;;25.38;26.32
69402;BME280;56589;51.992;5.924;2022-09-01T13:04:09;101483.44;;;25.31;26.21
69402;BME280;56589;51.992;5.924;2022-09-01T13:06:49;101483.97;;;25.26;27.37
69402;BME280;56589;51.992;5.924;2022-09-01T13:09:16;101479.41;;;25.35;27.79
69402;BME280;56589;51.992;5.924;2022-09-01T13:11:43;101475.31;;;25.39;27.80